ADDS TAF Board (Experimental) INFO

IDs: Format: Expanded Condensed

Updated at: 1213 UTC 22 Oct 2014

KSTL - St Louis/Lambert Int, MO, US

Issued at 1140 UTC 22 Oct 2014
Time1151Z22/13Z22/14Z22/15Z22/16Z22/17Z22/18Z22/19Z22/20Z22/21Z22/22Z22/23Z23/00Z23/01Z
TypeOBSPRVLPRVLPRVLPRVLPRVLPRVLPRVLPRVLPRVLPRVLPRVLPRVLPRVL
VIS10>6>6>6>6>6>6>6>6>6>6>6>6>6
CIG----------------------------
CoverCLRSKCSKCSKCSKCSKCSKCSKCSKCSKCSKCSKCSKCSKC
FltCat--VFRVFRVFRVFRVFRVFRVFRVFRVFRVFRVFRVFRVFR
WX----------------------------
WDirVRB9090110110110110110110110110110110120
WSpd04477777777774
WGst----------------------------
R06/24
XWndVRB-2-2-5-5-5-5-5-5-5-5-5-5-3
HWndVRB4455555555552
R11/29
XWndVRB2211111111110
HWndVRB3377777777774
R12/30
XWndVRB2211111111110
HWndVRB3377777777774
Raw TAF
KSTL 221140Z 2212/2318 09004KT P6SM SKC
  FM221500 11007KT P6SM SKC
  FM230100 12004KT P6SM SKC


Raw METAR
KSTL 221151Z 00000KT 10SM CLR 06/03 A3030 RMK AO2 SLP259 T00610033 10100 20061 53017

TAF Board Legend

Hazard VFR MVFR IFR LIFR
Visibility (sm) >5 3≤X≤5 1≤X<3 <1
Ceiling (100 ft) >30 10≤X≤30 5≤X<10 <5
Wind Speed (kt) <10 10≤X<20 20≤X<30 ≥30
Wind Gust (kt) <15 15≤X<25 25≤X<35 ≥35
Weather No Wx Reported VCTS,-TS,-FZRA TS,FZRA +TS,+FZRA


Page loaded:  12:13 UTC  |   05:13 AM Pacific  |   06:13 AM Mountain  |   07:13 AM Central  |   08:13 AM Eastern

 

ADVISORIES

FORECASTS

FORECASTS

OBSERVATIONS

USER TOOLS

ABOUT US